createdAt,value
2023-01-19T00:00:51.239Z,5.24
2023-01-19T00:03:19.415Z,5.24
2023-01-19T00:05:47.520Z,5.17
2023-01-19T00:08:18.829Z,5.22
2023-01-19T00:10:49.373Z,5.21
2023-01-19T00:13:18.950Z,5.22
2023-01-19T00:15:47.278Z,5.25
2023-01-19T00:18:15.503Z,5.24
2023-01-19T00:20:43.731Z,5.18
2023-01-19T00:23:11.820Z,5.29
2023-01-19T00:25:42.658Z,5.12
2023-01-19T00:28:11.641Z,5.08
2023-01-19T00:30:42.139Z,5.17
2023-01-19T00:33:10.909Z,5.18
2023-01-19T00:35:39.029Z,5.21
2023-01-19T00:38:07.252Z,5.12
2023-01-19T00:40:35.419Z,5.04
2023-01-19T00:43:04.254Z,5.17
2023-01-19T00:45:32.844Z,5.17
2023-01-19T00:48:02.413Z,5.19
2023-01-19T00:50:32.073Z,5.18
2023-01-19T00:53:02.355Z,5.15
2023-01-19T00:55:31.675Z,5.07
2023-01-19T00:57:59.800Z,5.05
2023-01-19T01:00:27.936Z,4.97
2023-01-19T01:02:56.469Z,4.91
2023-01-19T01:05:26.063Z,4.90
2023-01-19T01:07:54.222Z,4.94
2023-01-19T01:10:24.863Z,5.01
2023-01-19T01:12:57.049Z,4.87
2023-01-19T01:15:27.565Z,4.88
2023-01-19T01:17:55.764Z,4.87
2023-01-19T01:20:28.051Z,4.90
2023-01-19T01:22:57.951Z,4.84
2023-01-19T01:25:27.585Z,4.85
2023-01-19T01:27:56.419Z,4.88
2023-01-19T01:30:25.024Z,4.85
2023-01-19T01:32:53.146Z,4.85
2023-01-19T01:35:21.272Z,4.85
2023-01-19T01:37:50.797Z,4.87
2023-01-19T01:40:19.817Z,4.79
2023-01-19T01:42:48.356Z,4.80
2023-01-19T01:45:33.145Z,4.79
2023-01-19T01:48:07.567Z,4.84
2023-01-19T01:50:38.657Z,4.80
2023-01-19T01:53:12.550Z,4.74
2023-01-19T01:55:44.878Z,4.67
2023-01-19T01:58:15.019Z,4.70
2023-01-19T06:51:59.860Z,3.36
2023-01-19T06:54:28.067Z,3.36
2023-01-19T06:56:56.157Z,3.42
2023-01-19T06:59:25.947Z,3.44
2023-01-19T07:01:54.239Z,3.46
2023-01-19T07:04:22.487Z,3.47
2023-01-19T07:06:51.174Z,3.52
2023-01-19T07:09:21.155Z,3.47
2023-01-19T07:11:49.633Z,3.43
2023-01-19T07:14:17.802Z,3.40
2023-01-19T07:16:46.089Z,3.39
2023-01-19T07:19:15.425Z,3.42
2023-01-19T07:21:43.615Z,3.40
2023-01-19T07:24:11.768Z,3.40
2023-01-19T07:26:41.252Z,3.38
2023-01-19T07:29:09.627Z,3.36
2023-01-19T07:31:38.131Z,3.33
2023-01-19T07:34:07.030Z,3.36
2023-01-19T07:36:35.923Z,3.35
2023-01-19T07:39:04.080Z,3.33
2023-01-19T07:41:32.584Z,3.39
2023-01-19T07:44:02.050Z,3.39
2023-01-19T07:46:30.170Z,3.38
2023-01-19T07:48:58.283Z,3.35
2023-01-19T07:51:27.976Z,3.38
2023-01-19T07:53:56.129Z,3.39
2023-01-19T07:56:24.830Z,3.36
2023-01-19T07:58:53.038Z,3.44
2023-01-19T08:01:22.707Z,3.42
2023-01-19T08:03:51.474Z,3.43
2023-01-19T08:06:23.315Z,3.38
2023-01-19T08:08:51.499Z,3.40
2023-01-19T08:11:20.153Z,3.38
2023-01-19T08:13:48.344Z,3.43
2023-01-19T08:16:16.708Z,3.44
2023-01-19T08:18:46.236Z,3.43
2023-01-19T08:21:14.529Z,3.40
2023-01-19T08:23:42.688Z,3.43
2023-01-19T08:26:21.354Z,3.44
2023-01-19T08:28:49.532Z,3.46
2023-01-19T08:31:21.151Z,3.47
2023-01-19T08:33:51.683Z,3.49
2023-01-19T08:36:20.008Z,3.42
2023-01-19T08:38:48.182Z,3.44
2023-01-19T08:41:17.178Z,3.46
2023-01-19T08:43:45.815Z,3.44
2023-01-19T08:46:17.049Z,3.46
2023-01-19T08:48:45.520Z,3.43
2023-01-19T08:51:15.719Z,3.39
2023-01-19T08:53:43.939Z,3.40
2023-01-19T08:56:13.953Z,3.42
2023-01-19T08:58:43.051Z,3.46
2023-01-19T09:01:13.963Z,3.38
2023-01-19T09:03:42.164Z,3.32
2023-01-19T09:06:11.623Z,3.33
2023-01-19T09:08:41.160Z,3.33
2023-01-19T09:11:12.348Z,3.26
2023-01-19T09:13:41.405Z,3.28
2023-01-19T09:16:12.704Z,3.23
2023-01-19T09:18:42.966Z,3.25
2023-01-19T09:21:11.164Z,3.26
2023-01-19T09:23:40.741Z,3.22
2023-01-19T09:26:09.104Z,3.18
2023-01-19T09:28:39.001Z,3.15
2023-01-19T09:31:08.563Z,3.13
2023-01-19T09:33:37.105Z,3.15
2023-01-19T09:36:05.502Z,3.11
2023-01-19T09:38:34.187Z,3.02
2023-01-19T09:41:04.649Z,3.07
2023-01-19T09:43:38.797Z,2.98
2023-01-19T09:46:12.464Z,2.92
2023-01-19T09:48:49.147Z,2.97
2023-01-19T09:51:22.861Z,2.91
2023-01-19T09:53:58.710Z,2.92
2023-01-19T09:56:31.184Z,2.92
2023-01-19T09:59:00.520Z,2.85
2023-01-19T10:01:35.849Z,2.84
2023-01-19T10:04:19.342Z,2.85
2023-01-19T10:06:48.924Z,2.84
2023-01-19T10:09:25.999Z,2.80
2023-01-19T10:12:02.203Z,2.79
2023-01-19T10:14:46.721Z,2.77
2023-01-19T10:17:25.524Z,2.80
2023-01-19T10:19:56.543Z,2.80
2023-01-19T10:22:26.329Z,2.76
2023-01-19T10:24:56.815Z,2.70
2023-01-19T10:27:29.995Z,2.68
2023-01-19T10:29:59.125Z,2.68
2023-01-19T10:32:30.513Z,2.65
2023-01-19T10:35:01.085Z,2.71
2023-01-19T10:37:33.435Z,2.77
2023-01-19T10:40:20.020Z,2.79
2023-01-19T10:42:49.610Z,2.81
2023-01-19T10:45:18.917Z,2.77
2023-01-19T10:47:48.662Z,2.79
2023-01-19T10:50:35.703Z,2.79
2023-01-19T10:53:06.559Z,2.76
2023-01-19T10:55:38.151Z,2.79
2023-01-19T10:58:31.632Z,2.80
2023-01-19T11:01:14.556Z,2.77
2023-01-19T11:03:42.960Z,2.77
2023-01-19T11:06:29.297Z,2.76
2023-01-19T11:09:12.860Z,2.76
2023-01-19T11:11:46.576Z,2.67
2023-01-19T11:14:20.210Z,2.70
2023-01-19T11:16:51.049Z,2.73
2023-01-19T11:19:23.248Z,2.67
2023-01-19T11:21:51.625Z,2.70
2023-01-19T11:24:20.264Z,2.73
2023-01-19T11:26:51.297Z,2.71
2023-01-19T11:29:24.212Z,2.68
2023-01-19T11:31:53.389Z,2.68
2023-01-19T11:34:32.518Z,2.68
2023-01-19T11:37:02.307Z,2.68
2023-01-19T11:39:32.542Z,2.70
2023-01-19T11:42:03.459Z,2.61
2023-01-19T11:44:35.518Z,2.60
2023-01-19T11:47:07.288Z,2.61
2023-01-19T11:49:44.244Z,2.56
2023-01-19T11:52:23.285Z,2.56
2023-01-19T11:55:04.559Z,2.57
2023-01-19T11:57:32.819Z,2.54
2023-01-19T12:00:05.346Z,2.61
2023-01-19T12:02:43.763Z,2.58
2023-01-19T12:05:16.185Z,2.54
2023-01-19T12:07:46.681Z,2.57
2023-01-19T12:10:25.029Z,2.58
2023-01-19T12:12:54.685Z,2.58
2023-01-19T12:15:31.124Z,2.56
2023-01-19T12:18:02.208Z,2.57
2023-01-19T12:20:35.148Z,2.56
2023-01-19T12:23:15.197Z,2.63
2023-01-19T12:25:55.038Z,2.60
2023-01-19T12:28:29.877Z,2.67
2023-01-19T12:31:00.838Z,2.70
2023-01-19T12:33:36.000Z,2.73
2023-01-19T12:36:07.042Z,2.70
2023-01-19T12:38:40.094Z,2.71
2023-01-19T12:41:29.745Z,2.73
2023-01-19T12:44:25.463Z,2.70
2023-01-19T12:46:57.622Z,2.70
2023-01-19T12:49:32.997Z,2.67
2023-01-19T12:52:24.263Z,2.73
2023-01-19T12:54:58.227Z,2.67
2023-01-19T12:57:30.589Z,2.68
2023-01-19T13:00:02.870Z,2.71
2023-01-19T13:02:54.693Z,2.74
2023-01-19T13:05:51.069Z,2.70
2023-01-19T13:08:24.454Z,2.68
2023-01-19T13:11:14.515Z,2.68
2023-01-19T13:13:45.073Z,2.65
2023-01-19T13:16:59.028Z,2.67
2023-01-19T13:19:39.208Z,2.64
2023-01-19T13:22:44.375Z,2.64
2023-01-19T13:25:14.996Z,2.64
2023-01-19T13:27:43.370Z,2.64
2023-01-19T13:30:13.527Z,2.57
2023-01-19T13:32:43.392Z,2.61
2023-01-19T13:35:18.510Z,2.57
2023-01-19T13:37:47.354Z,2.57
2023-01-19T13:40:21.751Z,2.54
2023-01-19T13:42:52.420Z,2.54
2023-01-19T13:45:30.247Z,2.52
2023-01-19T13:48:00.817Z,2.56
2023-01-19T13:50:32.408Z,2.57
2023-01-19T13:53:01.518Z,2.60
2023-01-19T13:55:32.028Z,2.52
2023-01-19T13:58:00.330Z,2.52
2023-01-19T14:00:30.986Z,2.49
2023-01-19T14:03:14.503Z,2.46
2023-01-19T14:05:45.435Z,2.40
2023-01-19T14:08:15.815Z,2.37
2023-01-19T14:10:46.073Z,2.29
2023-01-19T14:13:17.013Z,2.23
2023-01-19T14:15:48.691Z,2.22
2023-01-19T14:18:30.184Z,2.16
2023-01-19T14:21:02.948Z,2.18
2023-01-19T14:23:43.881Z,2.18
2023-01-19T14:26:42.386Z,2.16
2023-01-19T14:29:35.308Z,2.18
2023-01-19T14:32:13.395Z,2.19
2023-01-19T14:34:43.894Z,2.21
2023-01-19T14:37:22.295Z,2.23
2023-01-19T14:39:52.261Z,2.22
2023-01-19T14:42:25.609Z,2.22
2023-01-19T14:44:55.367Z,2.25
2023-01-19T14:47:32.934Z,2.28
2023-01-19T14:50:07.590Z,2.28
2023-01-19T14:52:40.777Z,2.28
2023-01-19T14:55:20.671Z,2.25
2023-01-19T14:57:49.505Z,2.25
2023-01-19T15:00:21.354Z,2.26
2023-01-19T15:02:49.616Z,2.26
2023-01-19T15:05:18.207Z,2.30
2023-01-19T15:07:48.700Z,2.32
2023-01-19T15:10:21.839Z,2.29
2023-01-19T15:12:51.428Z,2.32
2023-01-19T15:15:25.937Z,2.29
2023-01-19T15:17:56.205Z,2.29
2023-01-19T15:20:24.917Z,2.29
2023-01-19T15:22:54.718Z,2.32
2023-01-19T15:25:26.245Z,2.26
2023-01-19T15:27:58.272Z,2.22
2023-01-19T15:30:30.238Z,2.21
2023-01-19T15:32:59.137Z,2.26
2023-01-19T15:35:27.663Z,2.23
2023-01-19T15:37:57.784Z,2.19
2023-01-19T15:40:25.984Z,2.26
2023-01-19T15:42:54.128Z,2.25
2023-01-19T15:45:40.618Z,2.28
2023-01-19T15:48:10.864Z,2.25
2023-01-19T15:50:41.880Z,2.23
2023-01-19T15:53:15.447Z,2.22
2023-01-19T15:55:43.927Z,2.28
2023-01-19T15:58:14.195Z,2.26
2023-01-19T16:00:43.016Z,2.19
2023-01-19T16:03:12.291Z,2.19
2023-01-19T16:05:43.870Z,2.16
2023-01-19T16:08:13.752Z,2.16
2023-01-19T16:10:42.915Z,2.15
2023-01-19T16:13:12.933Z,2.15
2023-01-19T16:15:42.588Z,2.16
2023-01-19T16:18:10.783Z,2.16
2023-01-19T16:20:38.944Z,2.11
2023-01-19T16:23:15.652Z,2.14
2023-01-19T16:25:45.682Z,2.06
2023-01-19T16:28:14.053Z,2.05
2023-01-19T16:30:42.311Z,2.04
2023-01-19T16:33:11.774Z,2.05
2023-01-19T16:35:40.501Z,2.02
2023-01-19T16:38:09.779Z,2.04
2023-01-19T16:40:39.352Z,2.02
2023-01-19T16:43:08.973Z,1.97
2023-01-19T16:46:00.624Z,1.97
2023-01-19T16:48:29.578Z,1.95
2023-01-19T16:51:03.333Z,1.94
2023-01-19T16:53:34.830Z,1.93
2023-01-19T16:56:06.988Z,1.89
2023-01-19T16:58:38.461Z,1.91
2023-01-19T17:01:13.159Z,1.84
2023-01-19T17:03:44.235Z,1.81
2023-01-19T17:06:14.889Z,1.79
2023-01-19T17:08:44.397Z,1.82
2023-01-19T17:11:19.891Z,1.79
2023-01-19T17:13:51.700Z,1.82
2023-01-19T17:16:20.335Z,1.78
2023-01-19T17:18:50.951Z,1.77
2023-01-19T17:21:22.573Z,1.79
2023-01-19T17:23:54.236Z,1.79
2023-01-19T17:26:26.884Z,1.81
2023-01-19T17:29:03.166Z,1.81
2023-01-19T17:31:33.172Z,1.77
2023-01-19T17:34:02.487Z,1.75
2023-01-19T17:36:33.030Z,1.79
2023-01-19T17:39:07.483Z,1.77
2023-01-19T17:41:38.745Z,1.75
2023-01-19T17:44:09.296Z,1.75
2023-01-19T17:46:39.910Z,1.73
2023-01-19T17:49:10.713Z,1.73
2023-01-19T17:51:40.702Z,1.67
2023-01-19T17:54:10.927Z,1.67
2023-01-19T17:56:41.817Z,1.70
2023-01-19T17:59:13.748Z,1.66
2023-01-19T18:01:45.023Z,1.68
2023-01-19T18:04:14.529Z,1.66
2023-01-19T18:06:53.286Z,1.66
2023-01-19T18:09:24.767Z,1.67
2023-01-19T18:11:54.483Z,1.68
2023-01-19T18:14:27.345Z,1.67
2023-01-19T18:16:57.154Z,1.68
2023-01-19T18:19:26.477Z,1.63
2023-01-19T18:21:57.259Z,1.68
2023-01-19T18:24:27.980Z,1.64
2023-01-19T18:26:58.465Z,1.70
2023-01-19T18:29:30.247Z,1.67
2023-01-19T18:32:05.410Z,1.70
2023-01-19T18:34:36.941Z,1.64
2023-01-19T18:37:06.776Z,1.61
2023-01-19T18:39:38.279Z,1.71
2023-01-19T18:42:08.929Z,1.75
2023-01-19T18:44:40.471Z,1.68
2023-01-19T18:47:11.942Z,1.66
2023-01-19T18:49:43.460Z,1.61
2023-01-19T18:52:20.192Z,1.60
2023-01-19T18:54:52.311Z,1.58
2023-01-19T18:57:23.283Z,1.53
2023-01-19T18:59:54.937Z,1.49
2023-01-19T19:02:26.768Z,1.44
2023-01-19T19:04:57.593Z,1.46
2023-01-19T19:07:29.883Z,1.47
2023-01-19T19:10:00.224Z,1.43
2023-01-19T19:12:30.357Z,1.42
2023-01-19T19:15:14.571Z,1.42
2023-01-19T19:17:45.528Z,1.40
2023-01-19T19:20:17.899Z,1.44
2023-01-19T19:22:49.716Z,1.43
2023-01-19T19:25:20.933Z,1.39
2023-01-19T19:27:53.836Z,1.38
2023-01-19T19:30:26.822Z,1.39
2023-01-19T19:32:59.912Z,1.35
2023-01-19T19:35:29.837Z,1.35
2023-01-19T19:37:59.666Z,1.35
2023-01-19T19:40:30.467Z,1.40
2023-01-19T19:43:00.415Z,1.38
2023-01-19T19:45:36.103Z,1.38
2023-01-19T19:48:07.336Z,1.42
2023-01-19T19:50:36.865Z,1.43
2023-01-19T19:53:07.514Z,1.38
2023-01-19T19:55:37.644Z,1.42
2023-01-19T19:58:15.778Z,1.43
2023-01-19T20:00:47.548Z,1.44
2023-01-19T20:03:16.602Z,1.44
2023-01-19T20:05:47.241Z,1.46
2023-01-19T20:08:17.952Z,1.47
2023-01-19T20:10:49.044Z,1.44
2023-01-19T20:13:25.643Z,1.46
2023-01-19T20:15:56.885Z,1.36
2023-01-19T20:18:26.475Z,1.39
2023-01-19T20:21:00.304Z,1.33
2023-01-19T20:23:32.585Z,1.39
2023-01-19T20:26:07.847Z,1.42
2023-01-19T20:28:38.972Z,1.36
2023-01-19T20:31:18.016Z,1.39
2023-01-19T20:33:49.304Z,1.49
2023-01-19T20:36:22.559Z,1.42
2023-01-19T20:38:55.708Z,1.43
2023-01-19T20:41:27.745Z,1.36
2023-01-19T20:43:58.210Z,1.38
2023-01-19T20:46:30.750Z,1.29
2023-01-19T20:49:01.482Z,1.25
2023-01-19T20:51:31.178Z,1.19
2023-01-19T20:54:01.611Z,1.16
2023-01-19T20:56:31.969Z,1.09
2023-01-19T20:59:04.699Z,1.08
2023-01-19T21:01:36.168Z,1.08
2023-01-19T21:04:06.214Z,1.02
2023-01-19T21:06:37.255Z,1.02
2023-01-19T21:09:07.225Z,1.02
2023-01-19T21:11:37.068Z,0.96
2023-01-19T21:14:06.545Z,0.95
2023-01-19T21:16:38.978Z,1.01
2023-01-19T21:19:08.174Z,0.96
2023-01-19T21:21:36.390Z,0.93
2023-01-19T21:24:05.773Z,0.98
2023-01-19T21:26:34.449Z,0.93
2023-01-19T21:29:06.192Z,0.96
2023-01-19T21:31:34.918Z,0.92
2023-01-19T21:34:04.914Z,0.89
2023-01-19T21:36:33.443Z,0.95
2023-01-19T21:39:02.230Z,0.89
2023-01-19T21:41:31.254Z,0.96
2023-01-19T21:44:01.809Z,0.99
2023-01-19T21:46:32.248Z,0.93
2023-01-19T21:49:02.106Z,0.96
2023-01-19T21:51:34.851Z,1.02
2023-01-19T21:54:04.173Z,1.05
2023-01-19T21:56:32.583Z,1.09
2023-01-19T21:59:02.403Z,1.12
2023-01-19T22:01:30.880Z,1.13
2023-01-19T22:03:59.727Z,1.09
2023-01-19T22:06:29.354Z,1.06
2023-01-19T22:09:00.725Z,1.06
2023-01-19T22:11:30.114Z,1.06
2023-01-19T22:13:59.696Z,1.05
2023-01-19T22:16:28.421Z,1.08
2023-01-19T22:18:59.531Z,1.13
2023-01-19T22:21:29.957Z,1.05
2023-01-19T22:24:01.176Z,1.06
2023-01-19T22:26:30.483Z,1.09
2023-01-19T22:29:00.385Z,0.96
2023-01-19T22:31:30.577Z,0.96
2023-01-19T22:33:59.636Z,0.91
2023-01-19T22:36:30.332Z,0.88
2023-01-19T22:39:01.726Z,0.78
2023-01-19T22:41:31.077Z,0.74
2023-01-19T22:44:01.835Z,0.73
2023-01-19T22:46:32.111Z,0.71
2023-01-19T22:49:01.160Z,0.75
2023-01-19T22:51:32.431Z,0.87
2023-01-19T22:54:02.290Z,0.81
2023-01-19T22:56:31.995Z,0.85
2023-01-19T22:59:00.692Z,0.85
2023-01-19T23:01:31.559Z,0.87
2023-01-19T23:04:00.241Z,0.78
2023-01-19T23:06:30.109Z,0.74
2023-01-19T23:08:59.630Z,0.78
2023-01-19T23:11:35.583Z,0.73
2023-01-19T23:14:04.896Z,0.70
2023-01-19T23:16:33.088Z,0.73
2023-01-19T23:19:01.506Z,0.71
2023-01-19T23:21:31.876Z,0.68
2023-01-19T23:24:02.174Z,0.71
2023-01-19T23:26:38.066Z,0.71
2023-01-19T23:29:07.229Z,0.75
2023-01-19T23:31:36.858Z,0.68
2023-01-19T23:34:07.070Z,0.63
2023-01-19T23:36:37.960Z,0.58
2023-01-19T23:39:09.935Z,0.63
2023-01-19T23:41:39.495Z,0.61
2023-01-19T23:44:07.693Z,0.58
2023-01-19T23:46:35.884Z,0.58
2023-01-19T23:49:04.346Z,0.52
2023-01-19T23:51:33.572Z,0.54
2023-01-19T23:54:01.866Z,0.56
2023-01-19T23:56:31.858Z,0.46
2023-01-19T23:59:03.979Z,0.50
